ADDS METAR Data INFO
IDs: Format: Raw Decoded Include TAF

Data at: 1526 UTC 18 Jun 2018

KFRG 181453Z 20009KT 10SM CLR 25/20 A3001 RMK AO2 SLP160 T02500200 57013
KFRG 181353Z 20009KT 10SM CLR 24/20 A3001 RMK AO2 SLP162 T02390200
KFRG 181253Z 21007KT 10SM CLR 22/20 A3004 RMK AO2 SLP170 T02220200
KFRG 181153Z 23010KT 10SM CLR 22/20 A3004 RMK AO2 SLP173 T02220200 10222 20194 58005
KFRG 181118Z AUTO 22008KT 10SM FEW007 21/19 A3005 RMK AO2 T02110194
KFRG 181053Z AUTO 22007KT 10SM CLR 21/19 A3005 RMK AO2 SLP176 T02060189
KFRG 180953Z AUTO 20007KT 10SM CLR 19/18 A3005 RMK AO2 SLP176 T01940183
KFRG 180853Z AUTO 21005KT 10SM CLR 19/18 A3006 RMK AO2 SLP177 T01940183 56005
KFRG 180753Z AUTO 20006KT 10SM CLR 20/18 A3006 RMK AO2 SLP178 T02000178
KFRG 180653Z AUTO 21004KT 10SM CLR 20/18 A3007 RMK AO2 SLP181 T02000178
KFRG 180553Z AUTO 23004KT 10SM CLR 20/18 A3007 RMK AO2 SLP182 T02000178 10233 20200 58001
KFRG 180453Z AUTO 22006KT 10SM CLR 21/18 A3008 RMK AO2 SLP185 T02060183 403000156
KFRG 180353Z AUTO 22008KT 10SM CLR 21/18 A3007 RMK AO2 SLP183 T02110178
KFRG 180253Z 22008KT 10SM CLR 21/17 A3007 RMK AO2 SLP183 T02110172 56001
KFRG 180153Z 22010KT 10SM CLR 22/17 A3008 RMK AO2 SLP184 T02170167
KFRG 180053Z 20008KT 10SM CLR 22/16 A3007 RMK AO2 SLP181 T02220161
KFRG 172353Z 20007KT 10SM CLR 23/15 A3008 RMK AO2 SLP185 T02330150 10294 20233 55000
KFRG 172253Z 20011KT 10SM CLR 25/13 A3008 RMK AO2 SLP184 T02500128
KFRG 172153Z 17011KT 10SM CLR 26/14 A3007 RMK AO2 SLP183 T02610139
KFRG 172053Z 18008KT 10SM CLR 28/12 A3008 RMK AO2 SLP184 T02780122 51006
KFRG 171953Z 19010KT 10SM CLR 28/11 A3007 RMK AO2 SLP181 T02830111
KFRG 171853Z 20009KT 10SM CLR 28/14 A3007 RMK AO2 SLP183 T02830139
KFRG 171753Z 17010KT 10SM CLR 29/14 A3006 RMK AO2 SLP178 T02940144 10300 20228 58012
KFRG 171653Z 17007KT 10SM CLR 29/15 A3008 RMK AO2 SLP184 T02890150
KFRG 171553Z VRB03KT 10SM CLR 29/11 A3009 RMK AO2 SLP189 T02940106
KFRG 171453Z VRB03KT 10SM CLR 28/13 A3010 RMK AO2 SLP191 T02830128 53008
KFRG 171353Z VRB03KT 10SM CLR 27/14 A3008 RMK AO2 SLP185 T02670139
KFRG 171253Z 00000KT 10SM CLR 24/14 A3008 RMK AO2 SLP184 T02440139
KFRG 171153Z 01004KT 10SM CLR 23/14 A3007 RMK AO2 SLP183 T02280139 10228 20156 53014
KFRG 171101Z 00000KT 10SM FEW002 19/14 A3005 RMK AO2 T01890144
KFRG 171053Z AUTO 00000KT 10SM CLR 18/14 A3005 RMK AO2 SLP175 T01830139
KFRG 170953Z AUTO 00000KT 10SM CLR 16/14 A3005 RMK AO2 SLP174 T01610139
KFRG 170853Z AUTO 00000KT 10SM CLR 16/14 A3003 RMK AO2 SLP169 T01610139 56001
KFRG 170753Z AUTO 00000KT 10SM CLR 18/16 A3004 RMK AO2 SLP170 T01780156
KFRG 170653Z AUTO 00000KT 10SM CLR 18/15 A3003 RMK AO2 SLP169 T01780150
KFRG 170553Z AUTO 21003KT 10SM CLR 18/14 A3004 RMK AO2 SLP170 T01780144 10217 20178 58002
KFRG 170453Z AUTO 23003KT 10SM CLR 19/13 A3005 RMK AO2 SLP173 T01890133 402720144
KFRG 170353Z AUTO 23005KT 10SM CLR 19/13 A3004 RMK AO2 SLP172 T01940128